Parma, Arkansas
Current Conditions -  °F | °C
As of 7:15 PM on Friday 31 Oct 2014 (Local Time) from KBVX Reporting Station
Clear Clear  
Wind Chill: 46°   Ceiling: Unl
Heat Index: 46°   Visibility: 10mi
Dew Point: 18°   Wind: 3mph
Humidity: 32%   Direction: 320°NW
Pressure: 30.33"   Gusts: NA
Location:  35.659°N, 92.1866°W
Report Text: KBVX 010015Z AUTO 32003KT 10SM CLR 08/M08 A3033 RMK AO1
Loading
Personal Weather Stations






























Interactive Weather Map New forecast layout! Learn more

10-Day Weather Forecast

Advertisements
Track Severe Weather on mobile